Time;durP1;ratioP1;P1;durP2;ratioP2;P2;SDS_P1;SDS_P2;PMS_P1;PMS_P2;Temp;Humidity;BMP_temperature;BMP_pressure;BME280_temperature;BME280_humidity;BME280_pressure;Samples;Min_cycle;Max_cycle;Signal;HPM_P1;HPM_P2
2022/01/26 00:07:33;;;;;;;49.00;25.10;;;4.40;99.90;;;;;;5061884;28;20063;-76
2022/01/26 00:09:58;;;;;;;41.72;23.73;;;4.40;99.90;;;;;;5031194;28;20045;-75
2022/01/26 00:12:24;;;;;;;45.53;22.92;;;4.30;99.90;;;;;;5031246;28;20044;-74
2022/01/26 00:14:50;;;;;;;58.10;23.90;;;4.40;99.90;;;;;;5030512;28;20041;-74
2022/01/26 00:17:15;;;;;;;48.00;25.40;;;4.40;99.90;;;;;;5033304;28;20048;-76
2022/01/26 00:19:56;;;;;;;42.20;25.20;;;4.40;99.90;;;;;;5031666;28;20560;-76
2022/01/26 00:22:39;;;;;;;37.40;24.98;;;4.40;99.90;;;;;;5030122;28;20059;-76
2022/01/26 00:25:38;;;;;;;45.95;24.98;;;4.40;99.90;;;;;;5063354;28;20453;-76
2022/01/26 00:38:38;;;;;;;48.35;24.50;;;4.30;99.90;;;;;;5036404;28;20610;-76
2022/01/26 00:41:11;;;;;;;48.00;23.55;;;4.30;99.90;;;;;;5033887;28;20052;-77
2022/01/26 00:43:42;;;;;;;48.80;26.80;;;4.50;99.90;;;;;;5034089;28;20828;-76
2022/01/26 00:46:08;;;;;;;56.75;28.88;;;4.30;99.90;;;;;;5034874;28;20052;-76
2022/01/26 00:48:36;;;;;;;42.88;22.80;;;4.30;99.90;;;;;;5032262;28;20086;-76
2022/01/26 00:51:05;;;;;;;50.72;27.45;;;4.30;99.90;;;;;;5032241;28;20053;-76
2022/01/26 00:53:38;;;;;;;50.95;25.35;;;4.30;99.90;;;;;;5035673;28;20876;-77
2022/01/26 00:56:04;;;;;;;54.78;24.30;;;4.30;99.90;;;;;;5036736;28;20049;-77
2022/01/26 00:58:31;;;;;;;46.70;25.10;;;5.20;99.90;;;;;;5035425;28;20465;-76
2022/01/26 01:00:59;;;;;;;54.35;27.40;;;4.30;99.90;;;;;;5031965;28;20110;-76
2022/01/26 01:03:25;;;;;;;48.13;23.35;;;4.30;99.90;;;;;;5066196;28;20259;-77
2022/01/26 01:06:12;;;;;;;50.72;22.15;;;4.30;99.90;;;;;;5032434;28;20037;-76
2022/01/26 01:08:40;;;;;;;56.85;25.02;;;4.80;99.90;;;;;;5033931;28;20057;-76
2022/01/26 01:11:07;;;;;;;50.55;24.25;;;4.30;99.90;;;;;;5035696;28;20048;-77
2022/01/26 01:13:36;;;;;;;45.90;23.83;;;4.30;99.90;;;;;;5034278;28;20059;-76
2022/01/26 01:16:03;;;;;;;42.95;23.45;;;4.30;99.90;;;;;;5034367;28;20053;-76
2022/01/26 01:18:39;;;;;;;48.80;21.80;;;4.30;99.90;;;;;;5036296;28;20120;-77
2022/01/26 01:21:38;;;;;;;53.13;25.33;;;4.30;99.90;;;;;;5036069;28;20110;-77
2022/01/26 01:29:14;;;;;;;48.28;23.63;;;4.20;99.90;;;;;;5035406;28;20067;-77
2022/01/26 01:31:45;;;;;;;58.50;24.45;;;4.20;99.90;;;;;;5036011;28;20473;-76
2022/01/26 01:34:13;;;;;;;42.55;24.77;;;4.20;99.90;;;;;;5035708;28;20045;-77
2022/01/26 01:36:41;;;;;;;54.42;27.20;;;4.20;99.90;;;;;;5035054;28;20511;-77
2022/01/26 01:39:08;;;;;;;49.78;25.60;;;4.20;99.90;;;;;;5034265;28;20088;-77
2022/01/26 01:41:38;;;;;;;51.53;25.13;;;4.20;99.90;;;;;;5035098;28;20158;-77
2022/01/26 01:44:05;;;;;;;47.92;25.65;;;4.20;99.90;;;;;;5033006;28;20069;-77
2022/01/26 01:46:31;;;;;;;49.00;25.42;;;4.20;99.90;;;;;;5033926;28;20060;-77
2022/01/26 01:48:57;;;;;;;55.30;25.58;;;4.20;99.90;;;;;;5033550;28;20135;-77
2022/01/26 01:51:29;;;;;;;41.08;24.88;;;4.30;99.90;;;;;;5034352;28;20037;-77
2022/01/26 01:53:55;;;;;;;51.78;26.17;;;4.20;99.90;;;;;;5033360;28;20851;-77
2022/01/26 01:56:25;;;;;;;47.13;26.25;;;4.10;99.90;;;;;;5033694;28;20063;-75
2022/01/26 01:58:53;;;;;;;47.53;24.88;;;4.20;99.90;;;;;;5033560;28;20455;-77
2022/01/26 02:01:19;;;;;;;54.28;25.90;;;4.20;99.90;;;;;;5033824;28;20681;-77
2022/01/26 02:03:44;;;;;;;49.53;23.05;;;4.10;99.90;;;;;;5035795;28;20052;-77
2022/01/26 02:06:10;;;;;;;57.95;28.75;;;4.20;99.90;;;;;;5037590;28;20045;-77
2022/01/26 02:08:35;;;;;;;50.80;25.02;;;4.10;99.90;;;;;;5035754;28;20062;-76
2022/01/26 02:11:03;;;;;;;50.03;26.48;;;4.10;99.90;;;;;;5035351;28;20044;-74
2022/01/26 02:13:41;;;;;;;52.85;25.38;;;4.10;99.90;;;;;;5037630;28;20048;-73
2022/01/26 02:16:15;;;;;;;46.55;26.20;;;4.10;99.90;;;;;;5037022;28;20053;-74
2022/01/26 02:55:55;;;;;;;46.08;23.50;;;4.00;99.90;;;;;;5037088;28;20061;-73
2022/01/26 02:58:44;;;;;;;51.58;28.02;;;4.00;99.90;;;;;;5037686;28;20142;-74
2022/01/26 03:06:21;;;;;;;47.17;24.23;;;4.00;99.90;;;;;;5034648;28;20052;-74
2022/01/26 03:08:54;;;;;;;52.97;24.25;;;4.10;99.90;;;;;;5036169;28;20060;-74
2022/01/26 03:11:21;;;;;;;52.20;25.50;;;4.10;99.90;;;;;;5038300;28;20055;-74
2022/01/26 03:13:53;;;;;;;44.15;24.30;;;4.10;99.90;;;;;;5036314;28;20154;-74
2022/01/26 03:16:28;;;;;;;55.85;24.95;;;4.10;99.90;;;;;;5032729;28;20064;-74
2022/01/26 03:21:26;;;;;;;52.88;25.30;;;4.00;99.90;;;;;;5034206;28;20052;-74
2022/01/26 03:29:43;;;;;;;48.95;25.23;;;4.10;99.90;;;;;;5036604;28;20086;-73
2022/01/26 03:32:48;;;;;;;51.03;24.88;;;4.00;99.90;;;;;;5035286;28;20142;-74
2022/01/26 03:35:04;;;;;;;64.40;24.38;;;4.00;99.90;;;;;;5032018;28;20049;-73
2022/01/26 03:37:37;;;;;;;47.67;23.23;;;4.00;99.90;;;;;;5031791;28;20959;-73
2022/01/26 03:40:12;;;;;;;47.22;24.60;;;4.00;99.90;;;;;;5030556;28;20057;-74
2022/01/26 03:42:37;;;;;;;51.55;24.38;;;4.00;99.90;;;;;;5068630;28;20091;-74
2022/01/26 03:45:03;;;;;;;41.72;23.20;;;3.90;99.90;;;;;;5035688;28;20507;-73
2022/01/26 03:47:29;;;;;;;49.03;23.33;;;4.00;99.90;;;;;;5036377;28;20060;-74
2022/01/26 03:49:54;;;;;;;55.97;25.40;;;4.00;99.90;;;;;;5037153;28;20048;-74
2022/01/26 03:52:20;;;;;;;45.05;23.45;;;4.00;99.90;;;;;;5037072;28;20041;-74
2022/01/26 03:54:45;;;;;;;55.33;26.42;;;4.00;99.90;;;;;;5035571;28;20503;-74
2022/01/26 03:57:11;;;;;;;52.03;25.95;;;4.00;99.90;;;;;;5034828;28;20077;-74
2022/01/26 03:59:37;;;;;;;56.78;25.73;;;4.00;99.90;;;;;;5036332;28;20045;-74
2022/01/26 04:02:03;;;;;;;50.58;24.92;;;4.00;99.90;;;;;;5036184;28;20915;-74
2022/01/26 04:04:34;;;;;;;52.95;26.08;;;4.00;99.90;;;;;;5035804;28;20144;-74
2022/01/26 04:07:01;;;;;;;45.20;24.40;;;4.00;99.90;;;;;;5034835;28;20742;-74
2022/01/26 04:09:26;;;;;;;44.33;23.00;;;4.00;99.90;;;;;;5035152;28;20106;-74
2022/01/26 04:11:52;;;;;;;57.53;23.40;;;4.00;99.90;;;;;;5036001;28;20073;-73
2022/01/26 04:14:22;;;;;;;45.25;25.38;;;4.10;99.90;;;;;;5037942;28;20136;-74
2022/01/26 04:16:48;;;;;;;42.60;24.10;;;4.10;99.90;;;;;;5036284;28;20484;-73
2022/01/26 04:19:14;;;;;;;53.53;24.23;;;4.00;99.90;;;;;;5036396;28;20064;-73
2022/01/26 04:22:00;;;;;;;48.58;24.25;;;4.00;99.90;;;;;;5035595;28;20160;-73
2022/01/26 04:24:32;;;;;;;44.45;23.73;;;4.00;99.90;;;;;;5035095;28;20758;-74
2022/01/26 04:29:28;;;;;;;47.50;22.52;;;4.00;99.90;;;;;;5036546;28;20067;-73
2022/01/26 04:31:54;;;;;;;47.65;24.70;;;4.00;99.90;;;;;;5036302;28;20103;-74
2022/01/26 04:34:20;;;;;;;44.83;24.05;;;4.00;99.90;;;;;;5037453;28;20135;-73
2022/01/26 04:36:53;;;;;;;45.03;25.77;;;3.90;99.90;;;;;;5036708;28;20833;-73
2022/01/26 04:39:25;;;;;;;48.78;23.27;;;3.90;99.90;;;;;;5034374;28;20130;-73
2022/01/26 04:41:56;;;;;;;49.00;24.07;;;3.90;99.90;;;;;;5036569;28;20132;-74
2022/01/26 04:44:25;;;;;;;48.65;22.88;;;3.90;99.90;;;;;;5033946;28;20314;-73
2022/01/26 04:46:51;;;;;;;46.53;24.00;;;3.90;99.90;;;;;;5033708;28;20950;-73
2022/01/26 04:49:17;;;;;;;58.58;27.83;;;3.90;99.90;;;;;;5035632;28;20084;-73
2022/01/26 04:51:43;;;;;;;53.10;26.67;;;3.90;99.90;;;;;;5035235;28;20847;-73
2022/01/26 04:54:09;;;;;;;51.50;25.63;;;3.90;99.90;;;;;;5037754;28;20055;-73
2022/01/26 04:56:35;;;;;;;41.33;22.80;;;3.80;99.90;;;;;;5036711;28;20051;-73
2022/01/26 04:59:01;;;;;;;48.72;24.10;;;3.80;99.90;;;;;;5038142;28;20037;-73
2022/01/26 05:01:26;;;;;;;48.15;26.08;;;3.80;99.90;;;;;;5035789;28;20059;-73
2022/01/26 05:03:52;;;;;;;47.13;25.38;;;3.80;99.90;;;;;;5036554;28;20668;-74
2022/01/26 05:06:17;;;;;;;51.17;24.63;;;3.70;99.90;;;;;;5035954;28;20052;-73
2022/01/26 05:08:43;;;;;;;46.42;21.30;;;3.70;99.90;;;;;;5034823;28;20136;-73
2022/01/26 05:11:12;;;;;;;46.45;23.85;;;3.70;99.90;;;;;;5036148;28;20052;-74
2022/01/26 05:13:38;;;;;;;50.60;25.83;;;3.70;99.90;;;;;;5034557;28;20067;-73
2022/01/26 05:16:06;;;;;;;44.53;22.10;;;3.70;99.90;;;;;;5035064;28;20483;-73
2022/01/26 05:18:33;;;;;;;42.47;23.25;;;3.70;99.90;;;;;;5034094;28;20057;-73
2022/01/26 05:20:58;;;;;;;48.38;23.20;;;3.70;99.90;;;;;;5033816;28;20052;-73
2022/01/26 05:23:24;;;;;;;47.38;23.98;;;3.70;99.90;;;;;;5036915;28;20385;-73
2022/01/26 05:25:50;;;;;;;49.95;22.90;;;3.70;99.90;;;;;;5036537;28;20292;-73
2022/01/26 05:28:15;;;;;;;47.58;22.65;;;3.70;99.90;;;;;;5034956;28;20041;-73
2022/01/26 05:30:41;;;;;;;46.63;22.58;;;3.70;99.90;;;;;;5036103;28;20056;-73
2022/01/26 05:33:06;;;;;;;46.88;24.17;;;3.70;99.90;;;;;;5034204;28;20037;-73
2022/01/26 05:35:32;;;;;;;50.45;24.20;;;3.70;99.90;;;;;;5035461;28;20518;-74
2022/01/26 05:37:58;;;;;;;48.75;20.83;;;3.70;99.90;;;;;;5038380;28;20045;-74
2022/01/26 05:40:24;;;;;;;46.95;22.08;;;3.80;99.90;;;;;;5040278;28;20041;-73
2022/01/26 05:42:49;;;;;;;44.50;20.67;;;3.70;99.90;;;;;;5038368;28;20041;-73
2022/01/26 05:45:23;;;;;;;50.33;24.92;;;3.70;99.90;;;;;;5038968;28;20053;-74
2022/01/26 05:47:49;;;;;;;45.50;22.67;;;3.70;99.90;;;;;;5039004;28;20487;-74
2022/01/26 05:50:15;;;;;;;48.97;22.35;;;3.70;99.90;;;;;;5038582;28;20037;-73
2022/01/26 05:52:40;;;;;;;45.63;23.05;;;3.70;99.90;;;;;;5037874;28;20062;-73
2022/01/26 05:55:06;;;;;;;47.15;25.73;;;3.70;99.90;;;;;;5038508;28;20131;-73
2022/01/26 05:57:32;;;;;;;42.90;21.98;;;3.70;99.90;;;;;;5038859;28;20182;-74
2022/01/26 05:59:58;;;;;;;41.13;19.60;;;3.70;99.90;;;;;;5039952;28;20053;-73
2022/01/26 06:02:23;;;;;;;46.72;21.98;;;3.70;99.90;;;;;;5037080;28;20048;-74
2022/01/26 06:04:49;;;;;;;48.83;25.13;;;3.70;99.90;;;;;;5037751;28;20117;-74
2022/01/26 06:07:15;;;;;;;47.75;21.45;;;3.60;99.90;;;;;;5038074;28;20055;-74
2022/01/26 06:09:40;;;;;;;41.95;19.27;;;3.60;99.90;;;;;;5035524;28;20053;-74
2022/01/26 06:12:06;;;;;;;43.22;19.45;;;3.70;99.90;;;;;;5038372;28;20095;-74
2022/01/26 06:14:32;;;;;;;38.45;19.60;;;3.70;99.90;;;;;;5036843;28;20143;-74
2022/01/26 06:16:57;;;;;;;45.35;20.17;;;3.60;99.90;;;;;;5038644;28;20377;-73
2022/01/26 06:19:23;;;;;;;43.03;21.90;;;3.60;99.90;;;;;;5040911;28;20140;-74
2022/01/26 06:21:48;;;;;;;42.83;21.33;;;3.60;99.90;;;;;;5040430;28;20130;-73
2022/01/26 06:24:14;;;;;;;49.80;23.08;;;3.60;99.90;;;;;;5038807;28;20392;-74
2022/01/26 06:26:41;;;;;;;40.80;18.48;;;3.60;99.90;;;;;;5040409;28;20226;-74
2022/01/26 06:29:07;;;;;;;38.70;19.48;;;3.60;99.90;;;;;;5040513;28;20830;-75
2022/01/26 06:31:34;;;;;;;33.53;20.00;;;3.60;99.90;;;;;;5038313;28;20053;-74
2022/01/26 06:34:02;;;;;;;45.42;21.42;;;3.60;99.90;;;;;;5040081;28;20177;-74
2022/01/26 06:36:28;;;;;;;40.63;22.30;;;3.70;99.90;;;;;;5040147;28;20055;-74
2022/01/26 06:38:53;;;;;;;53.28;19.63;;;3.70;99.90;;;;;;5038227;28;20080;-74
2022/01/26 06:41:24;;;;;;;44.17;20.42;;;3.80;99.90;;;;;;5036386;28;20059;-74
2022/01/26 06:43:59;;;;;;;40.95;22.77;;;3.80;99.90;;;;;;5037927;28;20049;-74
2022/01/26 06:46:34;;;;;;;41.30;19.50;;;3.80;99.90;;;;;;5037532;28;20068;-74
2022/01/26 06:51:26;;;;;;;32.55;18.10;;;3.70;99.90;;;;;;5039938;28;20523;-74
2022/01/26 06:53:52;;;;;;;36.83;18.58;;;3.70;99.90;;;;;;5039060;28;20045;-74
2022/01/26 06:56:17;;;;;;;45.10;19.98;;;3.70;99.90;;;;;;5038508;28;20130;-74
2022/01/26 06:58:43;;;;;;;33.50;16.80;;;3.70;99.90;;;;;;5039512;28;20509;-74
2022/01/26 07:01:09;;;;;;;35.85;19.10;;;3.70;99.90;;;;;;5038611;28;20141;-74
2022/01/26 07:03:34;;;;;;;39.13;18.83;;;3.70;99.90;;;;;;5038255;28;20103;-74
2022/01/26 07:06:00;;;;;;;31.38;19.52;;;3.70;99.90;;;;;;5039171;28;20049;-74
2022/01/26 07:08:25;;;;;;;36.60;19.38;;;3.70;99.90;;;;;;5039838;28;20037;-73
2022/01/26 07:10:53;;;;;;;32.55;18.52;;;3.70;99.90;;;;;;5039719;28;20554;-73
2022/01/26 07:13:19;;;;;;;35.88;20.40;;;3.70;99.90;;;;;;5039705;28;20049;-73
2022/01/26 07:23:49;;;;;;;40.85;22.30;;;3.70;99.90;;;;;;5038231;28;20044;-74
2022/01/26 07:26:15;;;;;;;39.70;19.88;;;3.70;99.90;;;;;;5036584;28;20056;-74
2022/01/26 07:28:40;;;;;;;43.85;21.33;;;3.80;99.90;;;;;;5034920;28;20041;-74
2022/01/26 07:31:07;;;;;;;41.92;21.95;;;3.70;99.90;;;;;;5035563;28;20389;-74
2022/01/26 07:33:33;;;;;;;40.47;20.05;;;3.70;99.90;;;;;;5034584;28;20618;-74
2022/01/26 07:35:59;;;;;;;44.35;21.98;;;3.70;99.90;;;;;;5069286;28;20041;-74
2022/01/26 07:38:28;;;;;;;41.60;23.05;;;3.70;99.90;;;;;;5036922;28;20052;-74
2022/01/26 07:40:54;;;;;;;43.13;22.90;;;3.70;99.90;;;;;;5034490;28;20044;-74
2022/01/26 07:43:20;;;;;;;48.22;24.33;;;3.70;99.90;;;;;;5036981;28;20044;-74
2022/01/26 07:45:45;;;;;;;51.58;23.10;;;3.70;99.90;;;;;;5034713;28;20037;-74
2022/01/26 07:48:11;;;;;;;46.33;22.10;;;3.70;99.90;;;;;;5034875;28;20059;-75
2022/01/26 07:50:36;;;;;;;54.45;25.90;;;3.70;99.90;;;;;;5034420;28;20036;-74
2022/01/26 07:53:04;;;;;;;46.58;24.02;;;3.70;99.90;;;;;;5031220;28;20053;-75
2022/01/26 07:55:30;;;;;;;51.58;25.00;;;3.70;99.90;;;;;;5060879;28;20061;-74
2022/01/26 07:57:57;;;;;;;49.50;26.05;;;3.70;99.90;;;;;;4684152;28;10000654;-74
2022/01/26 08:00:23;;;;;;;47.67;26.08;;;3.70;99.90;;;;;;5027825;28;20056;-73
2022/01/26 08:02:49;;;;;;;40.47;24.33;;;3.80;99.90;;;;;;5034931;28;20076;-74
2022/01/26 08:05:15;;;;;;;58.60;26.02;;;3.80;99.90;;;;;;5035071;28;20124;-74
2022/01/26 08:07:41;;;;;;;51.05;26.05;;;3.80;99.90;;;;;;5034510;28;20821;-73
2022/01/26 08:10:08;;;;;;;46.78;26.90;;;3.80;99.90;;;;;;5031092;28;20041;-73
2022/01/26 08:12:33;;;;;;;58.35;26.15;;;3.80;99.90;;;;;;5065690;28;20053;-73
2022/01/26 08:14:59;;;;;;;54.03;27.80;;;3.80;99.90;;;;;;5029624;28;20051;-73
2022/01/26 08:17:25;;;;;;;55.88;28.00;;;4.30;99.90;;;;;;5030911;28;20056;-73
2022/01/26 08:19:53;;;;;;;58.85;26.70;;;3.80;99.90;;;;;;5032449;28;20157;-73
2022/01/26 08:22:20;;;;;;;54.42;28.92;;;3.90;99.90;;;;;;5032057;28;20497;-73
2022/01/26 08:24:46;;;;;;;53.65;28.00;;;3.90;99.90;;;;;;5031866;28;20036;-74
2022/01/26 08:27:15;;;;;;;58.47;27.08;;;3.90;99.90;;;;;;5032366;28;20653;-73
2022/01/26 08:30:06;;;;;;;55.25;29.90;;;3.90;99.90;;;;;;5064655;28;20064;-74
2022/01/26 08:32:28;;;;;;;56.35;28.05;;;4.00;99.90;;;;;;5028452;28;20052;-73
2022/01/26 08:34:54;;;;;;;55.70;30.52;;;4.10;99.90;;;;;;5031960;28;20033;-73
2022/01/26 08:37:20;;;;;;;60.58;29.90;;;4.00;99.90;;;;;;5031253;28;20045;-74
2022/01/26 08:39:46;;;;;;;53.22;26.92;;;4.00;99.90;;;;;;5030271;28;20080;-73
2022/01/26 08:42:11;;;;;;;60.20;29.92;;;4.00;99.90;;;;;;5030255;28;20159;-74
2022/01/26 08:44:37;;;;;;;59.78;29.80;;;4.00;99.90;;;;;;5031504;28;20049;-74
2022/01/26 08:47:05;;;;;;;59.33;29.50;;;4.00;99.90;;;;;;5032096;28;20961;-73
2022/01/26 08:49:31;;;;;;;60.55;30.25;;;4.10;99.90;;;;;;5032308;28;20057;-74
2022/01/26 08:51:58;;;;;;;54.95;26.83;;;4.10;99.90;;;;;;5029601;28;20036;-73
2022/01/26 08:54:24;;;;;;;55.38;27.35;;;4.10;99.90;;;;;;5029521;28;20431;-74
2022/01/26 08:56:50;;;;;;;60.50;30.05;;;4.10;99.90;;;;;;5033490;28;20048;-74
2022/01/26 08:59:17;;;;;;;58.92;31.48;;;4.10;99.90;;;;;;5030817;28;20534;-73
2022/01/26 09:01:43;;;;;;;72.28;30.13;;;4.20;99.90;;;;;;5032887;28;20118;-73
2022/01/26 09:04:08;;;;;;;62.60;31.60;;;4.20;99.90;;;;;;5032800;28;20049;-74
2022/01/26 09:06:39;;;;;;;62.08;31.90;;;4.20;99.90;;;;;;5031808;28;21476;-74
2022/01/26 09:09:07;;;;;;;60.58;35.45;;;4.20;99.90;;;;;;5028599;28;20501;-74
2022/01/26 09:11:36;;;;;;;67.47;31.42;;;4.20;99.90;;;;;;5030743;28;20049;-74
2022/01/26 09:14:07;;;;;;;68.47;34.75;;;4.30;99.90;;;;;;5029909;28;20171;-74
2022/01/26 09:16:35;;;;;;;67.25;32.70;;;4.30;99.90;;;;;;5032793;28;20061;-71
2022/01/26 09:19:08;;;;;;;65.53;33.72;;;4.30;99.90;;;;;;5066499;28;20052;-74
2022/01/26 09:21:34;;;;;;;63.78;32.58;;;4.30;99.90;;;;;;5033898;28;20056;-74
2022/01/26 09:24:00;;;;;;;69.75;35.60;;;4.40;99.90;;;;;;5037557;28;20152;-73
2022/01/26 09:26:25;;;;;;;72.22;34.25;;;4.30;99.90;;;;;;5035919;28;20057;-73
2022/01/26 09:28:51;;;;;;;67.57;31.50;;;4.30;99.90;;;;;;5036511;28;20060;-73
2022/01/26 09:31:16;;;;;;;62.47;33.25;;;4.40;99.90;;;;;;5036360;28;20109;-74
2022/01/26 09:33:42;;;;;;;62.17;33.83;;;4.40;99.90;;;;;;5036287;28;20049;-74
2022/01/26 09:36:08;;;;;;;61.08;32.42;;;4.40;99.90;;;;;;5035313;28;20053;-73
2022/01/26 09:38:33;;;;;;;64.72;33.95;;;4.50;99.90;;;;;;5035847;28;20589;-73
2022/01/26 09:40:59;;;;;;;71.40;34.47;;;4.50;99.90;;;;;;5034711;28;20072;-73
2022/01/26 09:43:27;;;;;;;70.45;37.03;;;4.50;99.90;;;;;;5036349;28;20059;-73
2022/01/26 09:45:53;;;;;;;66.40;34.53;;;4.50;99.90;;;;;;5034448;28;20108;-73
2022/01/26 09:48:18;;;;;;;69.47;35.35;;;4.50;99.90;;;;;;5034108;28;20508;-73
2022/01/26 09:50:45;;;;;;;68.13;36.13;;;4.60;99.90;;;;;;5035264;28;20080;-73
2022/01/26 09:53:16;;;;;;;58.70;32.83;;;4.60;99.90;;;;;;5033421;28;21030;-73
2022/01/26 09:55:43;;;;;;;60.95;34.15;;;4.70;99.90;;;;;;5031510;28;20052;-73
2022/01/26 09:58:09;;;;;;;71.35;35.17;;;4.70;99.90;;;;;;5035032;28;20056;-73
2022/01/26 10:00:34;;;;;;;61.60;33.33;;;4.70;99.90;;;;;;5031855;28;20155;-74
2022/01/26 10:03:02;;;;;;;62.15;33.33;;;4.70;99.90;;;;;;5026677;28;20053;-73
2022/01/26 10:05:41;;;;;;;58.92;30.10;;;4.80;99.90;;;;;;5037094;28;20045;-73
2022/01/26 10:08:49;;;;;;;65.90;33.03;;;4.70;99.90;;;;;;5037418;28;20045;-73
2022/01/26 10:17:03;;;;;;;65.30;32.13;;;4.80;99.90;;;;;;5036698;28;20146;-73
2022/01/26 10:19:18;;;;;;;63.78;32.65;;;4.90;99.90;;;;;;5036262;28;20130;-73
2022/01/26 10:21:49;;;;;;;65.43;32.60;;;4.90;99.90;;;;;;5035203;28;20044;-73
2022/01/26 10:24:16;;;;;;;58.10;34.53;;;4.90;99.90;;;;;;5037905;28;20049;-73
2022/01/26 10:26:48;;;;;;;56.22;31.25;;;4.90;99.90;;;;;;5040147;28;20041;-72
2022/01/26 10:29:15;;;;;;;70.00;32.72;;;4.90;99.90;;;;;;5020091;28;20049;-73
2022/01/26 10:31:41;;;;;;;57.83;31.75;;;4.90;99.90;;;;;;5066490;28;20056;-74
2022/01/26 10:34:23;;;;;;;54.03;30.88;;;5.00;99.90;;;;;;5040420;28;20709;-74
2022/01/26 10:37:00;;;;;;;59.70;31.08;;;5.00;99.90;;;;;;5040097;28;20131;-74
2022/01/26 10:39:37;;;;;;;61.55;31.60;;;5.00;99.90;;;;;;5037729;28;20147;-73
2022/01/26 10:42:07;;;;;;;58.45;32.10;;;5.00;99.90;;;;;;5034024;28;20037;-74
2022/01/26 10:45:07;;;;;;;55.45;30.20;;;5.10;99.90;;;;;;5033050;28;20220;-74
2022/01/26 10:47:36;;;;;;;62.03;34.53;;;5.10;99.90;;;;;;5072007;28;20081;-74
2022/01/26 10:53:15;;;;;;;62.83;35.03;;;5.10;99.90;;;;;;5034600;28;20136;-74
2022/01/26 10:55:41;;;;;;;67.55;32.22;;;5.10;99.90;;;;;;5037627;28;20040;-74
2022/01/26 10:58:08;;;;;;;65.45;32.50;;;5.10;99.90;;;;;;5032686;28;20055;-73
2022/01/26 11:00:37;;;;;;;63.00;30.13;;;5.20;99.90;;;;;;5068428;28;20111;-74
2022/01/26 11:03:07;;;;;;;58.25;34.75;;;5.20;99.90;;;;;;5035646;28;20420;-74
2022/01/26 11:05:32;;;;;;;54.22;29.52;;;5.20;99.90;;;;;;5036949;28;20052;-74
2022/01/26 11:07:59;;;;;;;51.38;29.60;;;5.20;99.90;;;;;;5039247;28;20060;-74
2022/01/26 11:10:37;;;;;;;65.88;32.67;;;5.20;99.90;;;;;;5038916;28;20049;-74
2022/01/26 11:13:03;;;;;;;62.60;30.90;;;5.20;99.90;;;;;;5037678;28;20060;-74
2022/01/26 11:15:29;;;;;;;57.78;30.63;;;5.20;99.90;;;;;;5037373;28;20118;-78
2022/01/26 11:18:10;;;;;;;56.90;31.33;;;5.20;99.90;;;;;;5036788;28;20045;-74
2022/01/26 11:20:53;;;;;;;54.70;28.90;;;5.20;99.90;;;;;;5031803;28;20059;-74
2022/01/26 11:23:32;;;;;;;52.47;26.77;;;5.20;99.90;;;;;;5062347;28;20049;-75
2022/01/26 11:25:58;;;;;;;54.75;27.13;;;5.30;99.90;;;;;;5034902;28;20052;-74
2022/01/26 11:28:26;;;;;;;49.20;26.95;;;5.30;99.90;;;;;;5036677;28;20037;-74
2022/01/26 11:30:58;;;;;;;57.38;27.27;;;5.30;99.90;;;;;;5034234;28;20053;-74
2022/01/26 11:33:25;;;;;;;50.40;27.52;;;5.20;99.90;;;;;;5035299;28;20072;-74
2022/01/26 11:35:53;;;;;;;54.10;28.20;;;5.20;99.90;;;;;;5068015;28;20481;-74
2022/01/26 11:46:59;;;;;;;56.40;29.50;;;5.40;99.90;;;;;;5068209;28;20102;-73
2022/01/26 11:49:37;;;;;;;53.60;31.00;;;5.30;99.90;;;;;;5036076;28;20044;-74
2022/01/26 11:52:04;;;;;;;54.40;29.02;;;5.40;99.90;;;;;;5032811;28;20107;-74
2022/01/26 11:54:58;;;;;;;51.67;29.63;;;5.40;99.90;;;;;;5032050;28;20052;-74
2022/01/26 11:57:46;;;;;;;67.70;28.92;;;5.40;99.90;;;;;;5034310;28;20040;-74
2022/01/26 12:00:18;;;;;;;59.35;27.52;;;5.40;99.90;;;;;;5066200;28;20098;-74
2022/01/26 12:05:16;;;;;;;60.53;29.20;;;5.50;99.90;;;;;;5036663;28;20048;-76
2022/01/26 12:07:49;;;;;;;58.13;28.33;;;5.50;99.90;;;;;;5032376;28;20171;-75
2022/01/26 12:10:18;;;;;;;;;;;5.40;99.90;;;;;;5034285;28;20037;-77
2022/01/26 12:12:44;;;;;;;60.58;28.92;;;5.40;99.90;;;;;;5064799;28;19924;-74
2022/01/26 12:15:15;;;;;;;55.60;29.33;;;6.00;99.90;;;;;;5033118;28;20653;-74
2022/01/26 12:18:17;;;;;;;54.08;28.10;;;5.40;99.90;;;;;;5032443;28;20056;-73
2022/01/26 12:32:57;;;;;;;39.20;23.95;;;5.30;99.90;;;;;;5066836;28;20053;-74
2022/01/26 12:38:11;;;;;;;54.70;28.35;;;5.30;99.90;;;;;;5058601;28;20053;-74
2022/01/26 12:43:56;;;;;;;53.47;26.27;;;5.30;99.90;;;;;;5057534;28;20156;-74
2022/01/26 12:46:30;;;;;;;52.50;24.00;;;5.30;99.90;;;;;;5026948;28;20057;-74
2022/01/26 12:49:04;;;;;;;46.13;24.80;;;5.30;99.90;;;;;;5028687;28;20685;-74
2022/01/26 12:51:32;;;;;;;47.40;21.15;;;5.30;99.90;;;;;;5024075;28;20040;-75
2022/01/26 12:54:00;;;;;;;49.72;24.05;;;5.20;99.90;;;;;;5026157;28;20044;-73
2022/01/26 12:56:31;;;;;;;47.10;25.80;;;5.20;99.90;;;;;;5029338;28;20048;-74
2022/01/26 12:59:06;;;;;;;41.88;22.92;;;5.20;99.90;;;;;;5031929;28;20060;-73
2022/01/26 13:01:32;;;;;;;45.95;23.13;;;5.20;99.90;;;;;;5027231;28;20052;-73
2022/01/26 13:04:00;;;;;;;47.80;23.23;;;5.20;99.90;;;;;;5024635;28;20037;-73
2022/01/26 13:06:28;;;;;;;46.00;23.02;;;5.20;99.90;;;;;;5034718;28;20041;-73
2022/01/26 13:08:56;;;;;;;56.65;24.35;;;5.30;99.90;;;;;;5028689;28;20570;-73
2022/01/26 13:11:33;;;;;;;46.72;27.85;;;5.30;99.90;;;;;;5034978;28;20136;-73
2022/01/26 13:14:30;;;;;;;46.45;25.08;;;5.30;99.90;;;;;;5037489;28;20569;-74
2022/01/26 13:19:53;;;;;;;47.53;24.55;;;5.30;99.90;;;;;;5037631;28;20480;-74
2022/01/26 13:25:05;;;;;;;50.60;24.48;;;5.30;99.90;;;;;;5069093;28;20063;-74
2022/01/26 13:30:17;;;;;;;43.55;23.38;;;5.40;99.90;;;;;;5031021;28;20136;-74
2022/01/26 13:33:25;;;;;;;52.22;25.13;;;5.40;99.90;;;;;;5031829;28;20033;-73
2022/01/26 13:38:43;;;;;;;47.00;23.63;;;5.50;99.90;;;;;;5049823;28;20064;-72
2022/01/26 13:51:58;;;;;;;45.63;23.20;;;5.60;99.90;;;;;;5027387;28;20104;-75
2022/01/26 13:57:09;;;;;;;41.33;21.67;;;5.60;99.90;;;;;;5069976;28;19932;-75
2022/01/26 13:59:45;;;;;;;49.15;23.08;;;5.60;99.90;;;;;;5066709;28;20637;-75
2022/01/26 14:02:11;;;;;;;37.55;22.52;;;5.60;99.90;;;;;;5036920;28;20049;-75
2022/01/26 14:04:37;;;;;;;46.65;21.92;;;5.60;99.90;;;;;;5039827;28;20139;-75
2022/01/26 14:07:03;;;;;;;48.22;24.08;;;5.60;99.90;;;;;;5040015;28;20045;-75
2022/01/26 14:09:28;;;;;;;43.00;23.42;;;5.70;99.90;;;;;;5037995;28;20396;-75
2022/01/26 14:11:54;;;;;;;47.92;21.83;;;5.70;99.90;;;;;;5037253;28;20879;-75
2022/01/26 14:14:29;;;;;;;38.58;21.33;;;5.80;99.90;;;;;;5036729;28;20580;-75
2022/01/26 14:16:58;;;;;;;40.55;20.80;;;5.80;99.90;;;;;;5069140;28;20061;-75
2022/01/26 14:19:39;;;;;;;42.38;22.75;;;5.80;99.90;;;;;;5037571;28;20053;-75
2022/01/26 14:22:28;;;;;;;40.45;20.45;;;5.80;99.90;;;;;;5039831;28;20118;-74
2022/01/26 14:27:44;;;;;;;38.35;20.98;;;5.90;99.90;;;;;;5035266;28;20052;-75
2022/01/26 14:35:18;;;;;;;40.47;19.60;;;5.90;99.90;;;;;;5035483;28;20053;-79
2022/01/26 14:50:58;;;;;;;46.67;21.33;;;5.90;99.90;;;;;;5071341;28;20262;-75
2022/01/26 14:54:22;;;;;;;40.83;22.33;;;6.00;99.90;;;;;;5034745;28;20538;-76
2022/01/26 15:49:52;;;;;;;40.90;21.20;;;6.10;99.90;;;;;;5033594;28;20186;-74
2022/01/26 16:06:18;;;;;;;37.10;21.55;;;6.10;99.90;;;;;;5035889;28;20057;-74
2022/01/26 16:36:14;;;;;;;42.80;21.42;;;6.20;99.90;;;;;;5032809;28;20052;-75
2022/01/26 16:38:55;;;;;;;35.10;19.65;;;6.20;99.90;;;;;;5032176;28;20048;-74
2022/01/26 17:11:45;;;;;;;36.47;20.58;;;6.10;99.90;;;;;;5061324;28;20495;-74
2022/01/26 17:25:45;;;;;;;44.58;19.73;;;6.10;99.90;;;;;;5034502;28;20052;-74
2022/01/26 17:37:48;;;;;;;33.40;19.05;;;6.10;99.90;;;;;;5034621;28;20087;-74
2022/01/26 18:04:04;;;;;;;46.03;22.10;;;6.00;99.90;;;;;;5068194;28;20664;-74
2022/01/26 18:04:19;;;;;;;36.38;20.23;;;6.00;99.90;;;;;;5067364;28;20060;-73
2022/01/26 18:15:24;;;;;;;40.47;21.48;;;6.00;99.90;;;;;;5035124;28;20620;-74
2022/01/26 18:22:23;;;;;;;32.65;19.23;;;6.00;99.90;;;;;;5034489;28;20084;-74
2022/01/26 18:31:44;;;;;;;34.90;20.50;;;6.10;99.90;;;;;;5036342;28;20131;-73
2022/01/26 18:50:42;;;;;;;32.13;16.58;;;6.20;99.90;;;;;;5038291;28;20060;-74
2022/01/26 18:53:08;;;;;;;29.40;17.25;;;6.20;99.90;;;;;;5036913;28;20060;-74
2022/01/26 18:55:34;;;;;;;32.78;16.05;;;6.20;99.90;;;;;;5035446;28;20936;-74
2022/01/26 18:57:59;;;;;;;33.85;16.77;;;6.20;99.90;;;;;;5064327;28;20041;-73
2022/01/26 19:00:25;;;;;;;27.20;15.43;;;6.30;99.90;;;;;;5032813;28;20118;-73
2022/01/26 19:02:50;;;;;;;30.60;16.70;;;6.30;99.90;;;;;;5035324;28;20041;-73